Time;durP1;ratioP1;P1;durP2;ratioP2;P2;SDS_P1;SDS_P2;PMS_P1;PMS_P2;Temp;Humidity;BMP_temperature;BMP_pressure;BME280_temperature;BME280_humidity;BME280_pressure;Samples;Min_cycle;Max_cycle;Signal;HPM_P1;HPM_P2
2022/12/31 11:04:52;;;;;;;0.38;0.30;;;16.40;99.90;;;;;;10301448;22;1220341;-80
2022/12/31 11:09:16;;;;;;;0.28;0.28;;;16.80;99.90;;;;;;10281460;23;20510;-80
2022/12/31 11:13:46;;;;;;;0.85;0.40;;;17.10;99.90;;;;;;10205346;23;20088;-80
2022/12/31 11:17:52;;;;;;;0.30;0.30;;;17.40;99.90;;;;;;10203322;23;20001;-80
2022/12/31 11:22:17;;;;;;;0.40;0.40;;;17.80;99.90;;;;;;10203685;23;20399;-79
2022/12/31 11:26:28;;;;;;;0.35;0.35;;;18.20;99.90;;;;;;10232386;23;20339;-80
2022/12/31 11:31:01;;;;;;;0.20;0.20;;;18.90;99.90;;;;;;10205640;23;20005;-79
2022/12/31 11:35:31;;;;;;;0.75;0.50;;;18.90;99.90;;;;;;10204775;23;20009;-80
2022/12/31 11:39:32;;;;;;;0.32;0.30;;;19.00;99.90;;;;;;10230293;23;20013;-80
2022/12/31 11:43:45;;;;;;;0.32;0.30;;;19.20;99.90;;;;;;10204097;23;20008;-80
2022/12/31 11:48:18;;;;;;;0.60;0.40;;;20.00;99.90;;;;;;10203827;23;20064;-80
2022/12/31 11:52:47;;;;;;;0.30;0.30;;;20.00;99.90;;;;;;10231469;23;20001;-80
2022/12/31 11:57:12;;;;;;;0.88;0.40;;;20.10;99.90;;;;;;10231175;23;20001;-80
2022/12/31 12:01:21;;;;;;;0.75;0.50;;;20.40;99.90;;;;;;10206049;23;20013;-80
2022/12/31 12:05:23;;;;;;;0.25;0.25;;;20.90;99.90;;;;;;10204270;23;20017;-80
2022/12/31 12:09:33;;;;;;;0.40;0.40;;;21.40;99.90;;;;;;10229810;23;20011;-80
2022/12/31 12:13:34;;;;;;;0.25;0.25;;;21.30;99.90;;;;;;10231277;23;20599;-80
2022/12/31 12:17:34;;;;;;;0.40;0.40;;;21.40;99.90;;;;;;10203769;23;20009;-80
2022/12/31 12:21:44;;;;;;;2.15;0.50;;;21.00;99.90;;;;;;10229524;23;20009;-80
2022/12/31 12:25:45;;;;;;;0.35;0.32;;;19.70;99.90;;;;;;10203026;23;20104;-80
2022/12/31 12:29:46;;;;;;;0.60;0.40;;;18.50;99.90;;;;;;10218446;23;20001;-80
2022/12/31 12:33:48;;;;;;;0.75;0.40;;;17.70;99.90;;;;;;10229203;23;20462;-80
2022/12/31 12:38:05;;;;;;;0.20;0.20;;;17.40;99.90;;;;;;10203076;23;20403;-80
2022/12/31 12:42:14;;;;;;;0.98;0.40;;;17.10;99.90;;;;;;10231226;23;20035;-80
2022/12/31 12:46:18;;;;;;;0.77;0.40;;;17.00;99.90;;;;;;10204304;23;20092;-79
2022/12/31 12:50:31;;;;;;;0.28;0.28;;;16.80;99.90;;;;;;10204532;23;20692;-80
2022/12/31 12:54:46;;;;;;;0.70;0.47;;;16.80;99.90;;;;;;10203035;23;20101;-80
2022/12/31 12:59:33;;;;;;;1.15;0.40;;;16.70;99.90;;;;;;10230624;23;20002;-79
2022/12/31 13:03:54;;;;;;;1.45;0.30;;;16.80;99.90;;;;;;10232105;23;20384;-80
2022/12/31 13:08:16;;;;;;;0.43;0.40;;;16.70;99.90;;;;;;10208977;23;20040;-80
2022/12/31 13:12:31;;;;;;;0.50;0.50;;;16.70;99.90;;;;;;10209010;23;19997;-80
2022/12/31 13:16:46;;;;;;;0.73;0.45;;;16.50;99.90;;;;;;10208527;23;20036;-79
2022/12/31 13:20:58;;;;;;;0.75;0.73;;;16.60;99.90;;;;;;10208673;23;20013;-80
2022/12/31 13:25:11;;;;;;;0.60;0.50;;;16.50;99.90;;;;;;10233069;23;20152;-79
2022/12/31 13:29:20;;;;;;;0.73;0.55;;;16.30;99.90;;;;;;10207704;23;20009;-80
2022/12/31 13:33:39;;;;;;;0.77;0.57;;;16.40;99.90;;;;;;10209151;23;20001;-80
2022/12/31 13:37:41;;;;;;;0.90;0.60;;;16.20;99.90;;;;;;10235524;23;20056;-80
2022/12/31 13:41:56;;;;;;;0.43;0.40;;;16.20;99.90;;;;;;10235177;23;20060;-79
2022/12/31 13:46:13;;;;;;;0.40;0.40;;;16.20;99.90;;;;;;10207751;23;20008;-80
2022/12/31 13:50:23;;;;;;;0.55;0.55;;;16.20;99.90;;;;;;10208795;23;20015;-79
2022/12/31 13:54:44;;;;;;;0.50;0.50;;;16.00;99.90;;;;;;10233360;23;20024;-80
2022/12/31 13:58:51;;;;;;;0.40;0.40;;;15.90;99.90;;;;;;10208111;23;20020;-79
2022/12/31 14:03:16;;;;;;;1.83;0.57;;;15.90;99.90;;;;;;10233814;23;20013;-79
2022/12/31 14:07:21;;;;;;;0.68;0.52;;;15.80;99.90;;;;;;10206949;23;20088;-80
2022/12/31 14:11:58;;;;;;;0.68;0.68;;;15.70;99.90;;;;;;10234542;23;20017;-80
2022/12/31 14:16:20;;;;;;;0.60;0.50;;;15.40;99.90;;;;;;10207444;23;20028;-81
2022/12/31 14:20:27;;;;;;;0.55;0.55;;;15.10;99.90;;;;;;10233513;23;20437;-79
2022/12/31 14:24:46;;;;;;;2.72;1.00;;;15.00;99.90;;;;;;10207888;23;20005;-80
2022/12/31 14:28:59;;;;;;;329.77;113.82;;;14.90;99.90;;;;;;10207924;23;20036;-80
2022/12/31 14:33:39;;;;;;;73.63;27.92;;;14.70;99.90;;;;;;10207448;23;20008;-80
2022/12/31 14:38:02;;;;;;;6.55;2.35;;;14.60;99.90;;;;;;10206381;23;20009;-80
2022/12/31 14:42:13;;;;;;;1.30;0.55;;;14.40;99.90;;;;;;10231865;23;20016;-79
2022/12/31 14:46:51;;;;;;;0.47;0.47;;;14.10;99.90;;;;;;10205541;23;20032;-79
2022/12/31 14:50:52;;;;;;;0.88;0.60;;;13.80;99.90;;;;;;10232053;23;20266;-78
2022/12/31 14:55:05;;;;;;;1.17;0.50;;;13.60;99.90;;;;;;10206758;23;20001;-80
2022/12/31 14:59:38;;;;;;;1.30;0.60;;;13.20;99.90;;;;;;10233140;23;20097;-78
2022/12/31 15:03:40;;;;;;;2.28;1.27;;;13.10;99.90;;;;;;10151599;23;20020;-80
2022/12/31 15:07:47;;;;;;;1.75;1.23;;;13.10;99.90;;;;;;10206149;23;20013;-79
2022/12/31 15:12:03;;;;;;;1.65;1.20;;;13.10;99.90;;;;;;10234501;23;20005;-79
2022/12/31 15:16:18;;;;;;;1.80;1.40;;;13.10;99.90;;;;;;10208376;23;20012;-79
2022/12/31 15:20:44;;;;;;;1.65;1.13;;;12.80;99.90;;;;;;10207903;23;20013;-80
2022/12/31 15:24:46;;;;;;;1.48;0.80;;;12.70;99.90;;;;;;10232035;23;20317;-80
2022/12/31 15:28:57;;;;;;;0.68;0.57;;;12.60;99.90;;;;;;10232186;23;20491;-79
2022/12/31 15:33:02;;;;;;;0.50;0.50;;;12.40;99.90;;;;;;10206806;23;20005;-79
2022/12/31 15:37:05;;;;;;;1.73;0.68;;;12.00;99.90;;;;;;10207782;23;20097;-80
2022/12/31 15:41:26;;;;;;;1.15;0.63;;;11.80;99.90;;;;;;10233941;23;20013;-80
2022/12/31 15:45:32;;;;;;;1.10;0.73;;;11.50;99.90;;;;;;10233090;23;20594;-79
2022/12/31 15:49:39;;;;;;;1.38;0.93;;;11.30;99.90;;;;;;10205765;23;20005;-79
2022/12/31 15:53:42;;;;;;;8.43;4.30;;;11.40;99.90;;;;;;10232184;23;20109;-78
2022/12/31 15:57:43;;;;;;;2.58;1.80;;;11.20;99.90;;;;;;10206586;23;20032;-80
2022/12/31 16:01:45;;;;;;;4.95;3.22;;;10.80;99.90;;;;;;10207219;23;20009;-80
2022/12/31 16:05:45;;;;;;;8.15;4.80;;;10.50;99.90;;;;;;10232848;23;20013;-79
2022/12/31 16:09:50;;;;;;;10.32;6.05;;;10.20;99.90;;;;;;10235326;23;20100;-79
2022/12/31 16:13:54;;;;;;;7.82;4.47;;;10.20;99.90;;;;;;10234682;23;20001;-80
2022/12/31 16:18:01;;;;;;;11.75;5.53;;;10.50;99.90;;;;;;10206993;23;20009;-80
2022/12/31 16:22:14;;;;;;;8.95;5.32;;;10.30;99.90;;;;;;10230324;23;20410;-79
2022/12/31 16:26:14;;;;;;;9.73;5.40;;;10.20;99.90;;;;;;10205700;23;20040;-80
2022/12/31 16:30:20;;;;;;;12.48;6.03;;;10.00;99.90;;;;;;10230950;23;20440;-79
2022/12/31 16:34:24;;;;;;;19.02;9.95;;;10.00;99.90;;;;;;10205338;23;20316;-80
2022/12/31 16:38:36;;;;;;;10.10;5.75;;;9.80;99.90;;;;;;10205467;23;20019;-80
2022/12/31 16:42:38;;;;;;;16.30;7.43;;;9.50;99.90;;;;;;10232310;23;20001;-80
2022/12/31 16:46:39;;;;;;;5.00;2.58;;;9.30;99.90;;;;;;10230715;23;20316;-80
2022/12/31 16:50:47;;;;;;;11.85;5.70;;;9.10;99.90;;;;;;10204455;23;20035;-80
2022/12/31 16:54:49;;;;;;;17.95;9.07;;;8.90;99.90;;;;;;10231072;23;19997;-81
2022/12/31 16:58:57;;;;;;;11.15;6.25;;;9.00;99.90;;;;;;10205435;23;20011;-80
2022/12/31 17:03:08;;;;;;;24.58;12.02;;;9.10;99.90;;;;;;10203506;23;20023;-80
2022/12/31 17:07:31;;;;;;;;;;;9.10;99.90;;;;;;10231911;23;20586;-79
2022/12/31 17:11:38;;;;;;;20.67;8.90;;;9.20;99.90;;;;;;10204401;23;20370;-80
2022/12/31 17:15:41;;;;;;;13.52;8.80;;;8.90;99.90;;;;;;10208045;23;20008;-80
2022/12/31 17:19:48;;;;;;;10.90;6.05;;;8.70;99.90;;;;;;10208195;23;20016;-79
2022/12/31 17:23:54;;;;;;;8.55;5.07;;;8.50;99.90;;;;;;10207553;23;20100;-80
2022/12/31 17:28:06;;;;;;;10.05;5.63;;;8.50;99.90;;;;;;10232965;23;20013;-80
2022/12/31 17:32:34;;;;;;;6.38;4.40;;;8.50;99.90;;;;;;10208850;23;20056;-80
2022/12/31 17:36:35;;;;;;;6.75;4.45;;;8.50;99.90;;;;;;10235704;23;20001;-79
2022/12/31 17:40:37;;;;;;;9.40;5.47;;;8.30;99.90;;;;;;10235427;23;20421;-80
2022/12/31 17:44:41;;;;;;;12.00;6.45;;;8.20;99.90;;;;;;10209219;23;20088;-78
2022/12/31 17:48:44;;;;;;;9.75;5.78;;;8.00;99.90;;;;;;10234253;23;20596;-80
2022/12/31 17:52:46;;;;;;;10.02;6.05;;;8.10;99.90;;;;;;10238132;23;20128;-80
2022/12/31 17:56:46;;;;;;;4.35;3.05;;;8.10;99.90;;;;;;10238715;23;20432;-80
2022/12/31 18:00:47;;;;;;;2.15;0.90;;;8.10;99.90;;;;;;10212609;23;20016;-80
2022/12/31 18:04:47;;;;;;;4.10;2.03;;;8.30;99.90;;;;;;10212464;23;20021;-80
2022/12/31 18:08:48;;;;;;;1.23;0.70;;;8.40;99.90;;;;;;10211177;23;20001;-80
2022/12/31 18:12:49;;;;;;;0.95;0.70;;;8.40;99.90;;;;;;10236202;23;20017;-80
2022/12/31 18:16:49;;;;;;;1.77;1.23;;;8.40;99.90;;;;;;10238587;23;20005;-80
2022/12/31 18:20:59;;;;;;;1.27;0.90;;;8.80;99.90;;;;;;10238124;23;20020;-80
2022/12/31 18:25:00;;;;;;;1.80;1.23;;;8.90;99.90;;;;;;10212160;23;20076;-80
2022/12/31 18:29:14;;;;;;;3.05;1.20;;;9.20;99.90;;;;;;10211846;23;20348;-80
2022/12/31 18:33:21;;;;;;;1.38;0.90;;;9.30;99.90;;;;;;10211236;23;20005;-80
2022/12/31 18:37:22;;;;;;;2.40;0.93;;;9.60;99.90;;;;;;10211510;23;20028;-80
2022/12/31 18:41:26;;;;;;;1.83;1.10;;;10.00;99.90;;;;;;10238246;23;20009;-80
2022/12/31 18:45:26;;;;;;;1.42;1.08;;;10.60;99.90;;;;;;10211540;23;20087;-80
2022/12/31 18:49:27;;;;;;;1.90;1.13;;;11.00;99.90;;;;;;10212626;23;19997;-79
2022/12/31 18:53:28;;;;;;;1.35;0.90;;;11.40;99.90;;;;;;10211569;23;19997;-80
2022/12/31 18:57:28;;;;;;;1.00;0.77;;;11.70;99.90;;;;;;10211092;23;20459;-80
2022/12/31 19:01:31;;;;;;;1.30;0.82;;;11.90;99.90;;;;;;10211492;23;20432;-80
2022/12/31 19:05:36;;;;;;;1.48;0.70;;;11.90;99.90;;;;;;10210733;23;20013;-80
2022/12/31 19:09:36;;;;;;;1.30;0.82;;;11.90;99.90;;;;;;10237147;23;20008;-80
2022/12/31 19:13:37;;;;;;;0.93;0.80;;;11.60;99.90;;;;;;10237974;23;20424;-80
2022/12/31 19:17:37;;;;;;;2.20;1.00;;;11.50;99.90;;;;;;10211240;23;20009;-80
2022/12/31 19:21:38;;;;;;;3.00;0.60;;;11.70;99.90;;;;;;10210739;23;20020;-80
2022/12/31 19:25:39;;;;;;;1.10;0.68;;;11.80;99.90;;;;;;10235519;23;20470;-80
2022/12/31 19:29:39;;;;;;;2.38;0.80;;;12.00;99.90;;;;;;10237442;23;20011;-80
2022/12/31 19:33:40;;;;;;;0.90;0.80;;;12.20;99.90;;;;;;10238200;23;20005;-80
2022/12/31 19:37:42;;;;;;;1.48;0.90;;;12.40;99.90;;;;;;10210998;23;20009;-80
2022/12/31 19:41:43;;;;;;;1.77;0.88;;;12.30;99.90;;;;;;10238046;23;20005;-79
2022/12/31 19:45:44;;;;;;;1.15;0.82;;;12.40;99.90;;;;;;10209857;23;20064;-80
2022/12/31 19:49:45;;;;;;;1.75;0.80;;;12.40;99.90;;;;;;10237104;23;20472;-80
2022/12/31 19:53:47;;;;;;;1.48;0.80;;;12.50;99.90;;;;;;10238560;23;20000;-80
2022/12/31 19:57:48;;;;;;;1.85;0.85;;;12.40;99.90;;;;;;10212908;23;20016;-80
2022/12/31 20:01:48;;;;;;;1.77;1.08;;;12.40;99.90;;;;;;10238587;23;20009;-80
2022/12/31 20:05:49;;;;;;;1.70;1.00;;;12.40;99.90;;;;;;10213124;23;20107;-80
2022/12/31 20:09:49;;;;;;;1.77;1.10;;;12.20;99.90;;;;;;10237869;23;19998;-79
2022/12/31 20:13:52;;;;;;;1.88;1.33;;;12.20;99.90;;;;;;10211524;23;20004;-81
2022/12/31 20:17:56;;;;;;;2.83;1.60;;;12.00;99.90;;;;;;10211325;23;20024;-80
2022/12/31 20:21:56;;;;;;;3.20;1.20;;;11.80;99.90;;;;;;10237517;23;20120;-80
2022/12/31 20:25:58;;;;;;;1.88;1.17;;;11.80;99.90;;;;;;10211384;23;20013;-80
2022/12/31 20:29:59;;;;;;;31.88;17.08;;;11.70;99.90;;;;;;10212104;23;20005;-80
2022/12/31 20:33:59;;;;;;;1.95;1.45;;;11.70;99.90;;;;;;10211447;23;20061;-80
2022/12/31 20:38:00;;;;;;;3.45;1.20;;;11.60;99.90;;;;;;10213032;23;20609;-79
2022/12/31 20:42:00;;;;;;;1.30;0.93;;;11.60;99.90;;;;;;10236945;23;20005;-80
2022/12/31 20:46:14;;;;;;;1.23;0.88;;;11.50;99.90;;;;;;10237167;23;20468;-80
2022/12/31 20:50:15;;;;;;;1.70;1.10;;;11.40;99.90;;;;;;10212810;23;20448;-81
2022/12/31 20:54:15;;;;;;;3.58;1.25;;;11.40;99.90;;;;;;10239229;23;20066;-80
2022/12/31 20:58:16;;;;;;;1.35;0.93;;;11.10;99.90;;;;;;10237140;23;20396;-80
2022/12/31 21:02:17;;;;;;;1.20;1.10;;;11.10;99.90;;;;;;10212065;23;20092;-80
2022/12/31 21:06:18;;;;;;;1.13;0.80;;;10.90;99.90;;;;;;10238955;23;20388;-80
2022/12/31 21:10:18;;;;;;;1.90;0.90;;;10.70;99.90;;;;;;10239255;23;20001;-80
2022/12/31 21:14:19;;;;;;;1.83;1.20;;;10.70;99.90;;;;;;10212562;23;20008;-80
2022/12/31 21:18:21;;;;;;;2.22;1.15;;;10.60;99.90;;;;;;10213286;23;20036;-80
2022/12/31 21:22:23;;;;;;;3.40;1.55;;;10.70;99.90;;;;;;10238247;23;20016;-81
2022/12/31 21:26:23;;;;;;;2.70;1.40;;;10.50;99.90;;;;;;10242240;23;20321;-80
2022/12/31 21:30:24;;;;;;;2.75;1.30;;;10.50;99.90;;;;;;10266140;23;20001;-79
2022/12/31 21:34:24;;;;;;;1.77;1.33;;;10.30;99.90;;;;;;10237033;23;20001;-80
2022/12/31 21:38:25;;;;;;;2.53;1.63;;;10.20;99.90;;;;;;10210474;23;20447;-80
2022/12/31 21:42:26;;;;;;;1.77;1.17;;;10.10;99.90;;;;;;10210722;23;20037;-79
2022/12/31 21:46:26;;;;;;;3.42;1.40;;;9.80;99.90;;;;;;10236663;23;20005;-80
2022/12/31 21:50:27;;;;;;;1.83;1.50;;;9.80;99.90;;;;;;10238853;23;20483;-80
2022/12/31 22:03:28;;;;;;;1.88;1.20;;;9.90;99.90;;;;;;10237703;23;20056;-81
2022/12/31 22:07:28;;;;;;;2.42;1.48;;;10.00;99.90;;;;;;10238015;23;20032;-80
2022/12/31 22:11:29;;;;;;;1.40;1.02;;;9.90;99.90;;;;;;10237879;23;20001;-79
2022/12/31 22:15:30;;;;;;;2.15;1.45;;;9.70;99.90;;;;;;10211463;23;20055;-80
2022/12/31 22:19:30;;;;;;;2.13;1.33;;;9.80;99.90;;;;;;10211581;23;20009;-80
2022/12/31 22:23:32;;;;;;;1.73;1.13;;;9.80;99.90;;;;;;10237295;23;20009;-80
2022/12/31 22:27:32;;;;;;;5.28;3.20;;;9.60;99.90;;;;;;10210563;23;20020;-79
2022/12/31 22:31:33;;;;;;;11.82;7.30;;;9.40;99.90;;;;;;10210561;23;20005;-80
2022/12/31 22:35:33;;;;;;;2.10;1.33;;;9.20;99.90;;;;;;10210524;23;20052;-80
2022/12/31 22:39:34;;;;;;;1.88;1.33;;;9.10;99.90;;;;;;10235081;23;20005;-80
2022/12/31 22:43:37;;;;;;;1.15;0.90;;;9.10;99.90;;;;;;10236473;23;20048;-80
2022/12/31 22:47:38;;;;;;;2.05;1.30;;;9.00;99.90;;;;;;10210245;23;20443;-80
2022/12/31 22:51:38;;;;;;;3.38;1.48;;;9.10;99.90;;;;;;10236277;23;20049;-80
2022/12/31 22:55:41;;;;;;;1.80;1.33;;;8.90;99.90;;;;;;10233181;23;20012;-79
2022/12/31 22:59:42;;;;;;;2.67;1.42;;;9.00;99.90;;;;;;10210487;23;20005;-79
2022/12/31 23:03:43;;;;;;;2.17;1.42;;;8.80;99.90;;;;;;10210424;23;20009;-80
2022/12/31 23:07:43;;;;;;;7.07;3.90;;;8.80;99.90;;;;;;10235281;23;20313;-80
2022/12/31 23:11:44;;;;;;;2.03;1.48;;;8.80;99.90;;;;;;10209346;23;20343;-80
2022/12/31 23:24:27;;;;;;;35.58;19.73;;;9.20;99.90;;;;;;10233617;23;20085;-79
2022/12/31 23:28:27;;;;;;;118.85;81.60;;;9.20;99.90;;;;;;10206806;23;20020;-79
2022/12/31 23:32:28;;;;;;;75.90;44.88;;;8.90;99.90;;;;;;10231465;23;20005;-79
2022/12/31 23:36:28;;;;;;;36.05;23.35;;;8.80;99.90;;;;;;10231910;23;20013;-79
2022/12/31 23:40:33;;;;;;;32.97;19.70;;;8.50;99.90;;;;;;10233164;23;20071;-79
2022/12/31 23:44:33;;;;;;;20.05;10.63;;;8.30;99.90;;;;;;10231155;23;20013;-80
2022/12/31 23:48:34;;;;;;;16.33;10.20;;;8.30;99.90;;;;;;10233011;23;20339;-80
2022/12/31 23:52:34;;;;;;;16.75;9.65;;;8.60;99.90;;;;;;10233016;23;20033;-79
2022/12/31 23:56:35;;;;;;;20.63;9.50;;;8.90;99.90;;;;;;10208587;23;20325;-80
